Change the Weather History Date:

Thursday, February 13, 2014

  Actual Average Record
Temperature  
Mean Temperature 55 °F -  
Max Temperature 74 °F 56 °F 74 °F (2014)
Min Temperature 36 °F 34 °F 29 °F (2015)
Degree Days  
Heating Degree Days 10    
Growing Degree Days 5 (Base 50)    
Moisture  
Dew Point 16 °F    
Average Humidity 21    
Maximum Humidity 37    
Minimum Humidity 13    
Precipitation  
Precipitation 0.00 in - - ()
Sea Level Pressure  
Sea Level Pressure 30.07 in    
Wind  
Wind Speed 7 mph (NW)    
Max Wind Speed 15 mph    
Max Gust Speed 17 mph    
Visibility 10 miles    
Events      
Averages and records for this station are not official NWS values.
T = Trace of Precipitation, MM = Missing Value Source: NWS Daily Summary

Daily Weather History Graph

Daily Weather History Graph

Search for Another Location

Airport or City:

Trip Planner

Search our weather history database for the weather conditions in past years. The results will help you decide how hot, cold, wet, or windy it might be!

Date:

Astronomy

Feb. 13, 2014 Rise Set
Actual Time 6:52 AM MST 5:52 PM MST
Civil Twilight 6:26 AM MST 6:17 PM MST
Nautical Twilight 5:58 AM MST 6:46 PM MST
Astronomical Twilight 5:29 AM MST 7:14 PM MST
Moon 5:02 PM MST (2/13) 5:46 AM MST (2/13)
Length of Visible Light 11h 50m
Length of Day
11h 00m
Waxing Gibbous, 99% of the Moon is Illuminated
Feb 13
Waxing Gibbous
Feb 14
Full
Feb 22
Last Quarter
Mar 1
New
Mar 8
First Quarter

Hourly Weather History & Observations

Time (MST) Temp. Windchill Dew Point Humidity Pressure Visibility Wind Dir Wind Speed Gust Speed Precip Events Conditions
12:15 AM 45.5 °F 40.3 °F 8.6 °F 22% 30.07 in 10.0 mi West 10.4 mph - N/A   Clear
12:35 AM 44.4 °F 41.2 °F 8.2 °F 23% 30.08 in 10.0 mi WNW 5.8 mph - N/A   Clear
12:55 AM 43.5 °F 38.3 °F 8.4 °F 24% 30.08 in 10.0 mi NW 9.2 mph - N/A   Clear
1:15 AM 48.2 °F - 8.6 °F 20% 30.08 in 10.0 mi NW 8.1 mph - N/A   Clear
1:35 AM 43.9 °F 39.9 °F 8.6 °F 24% 30.08 in 10.0 mi NNE 6.9 mph - N/A   Clear
1:55 AM 43.7 °F 42.1 °F 8.6 °F 24% 30.08 in 10.0 mi North 3.5 mph - N/A   Clear
2:15 AM 42.8 °F - 8.4 °F 24% 30.07 in 10.0 mi Calm Calm - N/A   Clear
2:35 AM 40.3 °F - 8.4 °F 27% 30.08 in 10.0 mi Calm Calm - N/A   Clear
2:55 AM 41.2 °F 38.2 °F 8.4 °F 26% 30.08 in 10.0 mi WNW 4.6 mph - N/A   Clear
3:15 AM 40.1 °F 36.9 °F 8.2 °F 27% 30.08 in 10.0 mi WNW 4.6 mph - N/A   Clear
3:35 AM 37.6 °F 33.1 °F 7.7 °F 29% 30.08 in 10.0 mi NW 5.8 mph - N/A   Clear
3:55 AM 41.5 °F 39.6 °F 9.1 °F 27% 30.08 in 10.0 mi NNE 3.5 mph - N/A   Clear
4:15 AM 39.7 °F 37.6 °F 8.8 °F 28% 30.08 in 10.0 mi North 3.5 mph - N/A   Clear
4:35 AM 43.3 °F 41.7 °F 10.0 °F 26% 30.08 in 10.0 mi NNW 3.5 mph - N/A   Clear
4:55 AM 39.9 °F - 8.8 °F 28% 30.08 in 10.0 mi Calm Calm - N/A   Clear
5:15 AM 38.1 °F 34.6 °F 9.3 °F 30% 30.08 in 10.0 mi WNW 4.6 mph - N/A   Clear
5:35 AM 39.0 °F 35.7 °F 10.0 °F 30% 30.09 in 10.0 mi WNW 4.6 mph - N/A   Clear
5:55 AM 39.2 °F 37.0 °F 10.6 °F 31% 30.09 in 10.0 mi West 3.5 mph - N/A   Clear
6:15 AM 36.7 °F 32.0 °F 9.9 °F 33% 30.09 in 10.0 mi NW 5.8 mph - N/A   Clear
6:35 AM 43.5 °F 40.9 °F 16.7 °F 34% 30.11 in 10.0 mi NE 4.6 mph - N/A   Clear
6:55 AM 43.0 °F 38.8 °F 16.7 °F 35% 30.11 in 10.0 mi North 6.9 mph - N/A   Clear
7:15 AM 41.5 °F 37.1 °F 16.7 °F 37% 30.12 in 10.0 mi NNW 6.9 mph - N/A   Clear
7:35 AM 45.9 °F 43.6 °F 17.8 °F 33% 30.13 in 10.0 mi NE 4.6 mph - N/A   Clear
7:55 AM 48.0 °F - 18.0 °F 30% 30.13 in 10.0 mi Calm Calm - N/A   Clear
8:15 AM 50.9 °F - 18.5 °F 28% 30.13 in 10.0 mi Calm Calm - N/A   Clear
8:35 AM 52.5 °F - 18.9 °F 27% 30.14 in 10.0 mi West 3.5 mph - N/A   Clear
8:55 AM 55.8 °F - 19.4 °F 24% 30.15 in 10.0 mi WNW 4.6 mph - N/A   Clear
9:15 AM 57.7 °F - 19.6 °F 23% 30.15 in 10.0 mi NNW 8.1 mph - N/A   Clear
9:35 AM 56.8 °F - 17.6 °F 22% 30.16 in 10.0 mi ENE 3.5 mph - N/A   Clear
9:55 AM 58.6 °F - 18.5 °F 21% 30.16 in 10.0 mi East 4.6 mph - N/A   Clear
10:15 AM 59.7 °F - 19.2 °F 21% 30.16 in 10.0 mi East 4.6 mph - N/A   Clear
10:35 AM 60.6 °F - 18.9 °F 20% 30.16 in 10.0 mi ENE 4.6 mph - N/A   Clear
10:55 AM 63.0 °F - 19.8 °F 19% 30.16 in 10.0 mi NNW 5.8 mph - N/A   Clear
11:15 AM 64.6 °F - 20.3 °F 18% 30.15 in 10.0 mi North 9.2 mph - N/A   Clear
11:35 AM 65.5 °F - 20.1 °F 18% 30.15 in 10.0 mi NW 6.9 mph - N/A   Clear
11:55 AM 66.7 °F - 19.8 °F 17% 30.13 in 10.0 mi NNW 8.1 mph - N/A   Clear
12:35 PM 68.4 °F - 19.4 °F 16% 30.10 in 10.0 mi North 6.9 mph - N/A   Clear
12:55 PM 70.3 °F - 19.6 °F 15% 30.08 in 10.0 mi North 10.4 mph - N/A   Clear
1:15 PM 71.6 °F - 19.4 °F 14% 30.07 in 10.0 mi NNE 10.4 mph 16.1 mph N/A   Clear
1:35 PM 72.5 °F - 19.6 °F 14% 30.05 in 10.0 mi NNW 6.9 mph - N/A   Clear
1:55 PM 72.9 °F - 19.8 °F 13% 30.04 in 10.0 mi NW 5.8 mph - N/A   Clear
2:15 PM 73.8 °F - 19.8 °F 13% 30.04 in 10.0 mi North 9.2 mph 16.1 mph N/A   Clear
2:35 PM 73.6 °F - 19.8 °F 13% 30.03 in 10.0 mi NNW 8.1 mph - N/A   Clear
2:55 PM 73.9 °F - 19.4 °F 13% 30.03 in 10.0 mi West 12.7 mph 17.3 mph N/A   Clear
3:15 PM 74.7 °F - 19.8 °F 13% 30.03 in 10.0 mi WNW 10.4 mph 17.3 mph N/A   Clear
3:35 PM 73.4 °F - 19.6 °F 13% 30.02 in 10.0 mi WSW 11.5 mph - N/A   Clear
3:55 PM 73.0 °F - 19.4 °F 13% 30.02 in 10.0 mi WSW 12.7 mph 16.1 mph N/A   Clear
4:15 PM 72.9 °F - 19.4 °F 13% 30.01 in 10.0 mi WSW 9.2 mph 16.1 mph N/A   Clear
4:35 PM 72.7 °F - 19.4 °F 13% 30.01 in 10.0 mi WSW 9.2 mph - N/A   Clear
4:55 PM 72.0 °F - 19.2 °F 14% 30.01 in 10.0 mi WSW 9.2 mph - N/A   Clear
5:15 PM 71.6 °F - 18.9 °F 14% 30.01 in 10.0 mi SW 9.2 mph - N/A   Clear
5:35 PM 70.0 °F - 18.3 °F 14% 30.01 in 10.0 mi WSW 4.6 mph - N/A   Clear
5:55 PM 67.3 °F - 17.2 °F 15% 30.00 in 10.0 mi SW 8.1 mph - N/A   Clear
6:15 PM 66.4 °F - 16.7 °F 15% 30.00 in 10.0 mi WSW 9.2 mph - N/A   Clear
6:35 PM 63.5 °F - 16.0 °F 16% 30.01 in 10.0 mi West 9.2 mph - N/A   Clear
6:55 PM 63.3 °F - 16.0 °F 16% 30.01 in 10.0 mi West 11.5 mph - N/A   Clear
7:15 PM 63.0 °F - 16.0 °F 16% 30.02 in 10.0 mi West 12.7 mph - N/A   Clear
7:35 PM 62.1 °F - 16.2 °F 17% 30.02 in 10.0 mi West 11.5 mph - N/A   Clear
7:55 PM 61.3 °F - 16.0 °F 17% 30.03 in 10.0 mi West 13.8 mph - N/A   Clear
8:15 PM 60.1 °F - 16.3 °F 18% 30.03 in 10.0 mi West 15.0 mph - N/A   Clear
8:35 PM 60.8 °F - 16.9 °F 18% 30.03 in 10.0 mi West 13.8 mph - N/A   Clear
8:55 PM 59.0 °F - 17.2 °F 20% 30.03 in 10.0 mi West 12.7 mph - N/A   Clear
9:15 PM 58.6 °F - 17.4 °F 20% 30.04 in 10.0 mi WNW 6.9 mph - N/A   Clear
9:35 PM 57.0 °F - 17.4 °F 21% 30.04 in 10.0 mi WNW 6.9 mph - N/A   Clear
9:55 PM 57.4 °F - 17.6 °F 21% 30.04 in 10.0 mi WNW 8.1 mph - N/A   Clear
10:15 PM 57.6 °F - 17.8 °F 21% 30.04 in 10.0 mi West 11.5 mph - N/A   Clear
10:35 PM 57.0 °F - 17.6 °F 21% 30.03 in 10.0 mi West 9.2 mph - N/A   Clear
10:55 PM 54.5 °F - 17.4 °F 23% 30.03 in 10.0 mi West 6.9 mph - N/A   Clear
11:15 PM 52.7 °F - 17.2 °F 25% 30.03 in 10.0 mi NW 4.6 mph - N/A   Clear
11:35 PM 54.3 °F - 17.6 °F 24% 30.04 in 10.0 mi WNW 6.9 mph - N/A   Clear
11:55 PM 52.9 °F - 17.2 °F 25% 30.04 in 10.0 mi NW 5.8 mph - N/A   Clear